Profil Rumah Sakit

RSU.A.YANI METRO

Ketersediaan Tempat Tidur

No Kelas Rawat Nama Ruang Kapasitas Tersedia Tglupdate
Umum Laki-laki Perempuan
1 NON R.NEONATUS 6 0 0 0 2018-01-29 12:36:16
2 NON RPDA KEMO 11 10 0 0 2018-01-29 12:36:06
3 VIP PAVILIUN 12 0 0 0 2018-01-29 12:36:31
4 KELAS I R.BEDAH I 2 1 0 0 2018-01-29 12:40:09
5 KELAS I R. SARAF 6 0 0 0 2018-01-29 12:39:54
6 KELAS I RPDC 4 0 0 0 2018-01-29 12:40:18
7 KELAS I RPDA 6 1 0 0 2018-01-29 12:40:27
8 KELAS I R.ANAK I 8 0 0 0 2018-01-29 12:40:39
9 KELAS I BERSALIN I 2 2 0 0 2018-01-29 12:40:53
10 KELAS I RPDB I 7 0 0 0 2018-01-29 12:41:11
11 KELAS II R.ANAK II 6 0 0 0 2018-01-29 12:41:25
12 KELAS II BERSALIN II 2 1 0 0 2018-01-29 12:42:46
13 KELAS II RPDA II 6 0 0 0 2018-01-29 12:43:00
14 KELAS II RPDB II 6 0 0 0 2018-01-29 12:43:12
15 KELAS II R.PARU NON TB 3 1 0 0 2018-01-29 12:41:45
16 KELAS II R.BEDAH II 5 2 0 0 2018-01-29 12:42:15
17 KELAS II R.SARAF II 6 0 0 0 2018-01-29 12:42:31
18 KELAS II RPDC II 12 0 0 0 2018-01-29 12:42:02
19 KELAS III R.BEDAH III 38 21 0 0 2018-01-29 12:44:37
20 KELAS III R. SARAF III 9 0 0 0 2018-01-29 12:45:59
21 KELAS III RPDC III 6 0 0 0 2018-01-29 12:43:43
22 KELAS III R.PARU III TB 10 5 0 0 2018-01-29 12:44:22
23 KELAS III R.ANAK III 15 5 0 0 2018-01-29 12:45:19
24 KELAS III BERSALIN III 11 9 0 0 2018-01-29 12:44:52
25 KELAS III RPDA III 6 0 0 0 2018-01-29 12:44:01
26 KELAS III RPDB III 18 0 0 0 2018-01-29 12:45:31
27 KELAS III R.PARU III NON TB 10 1 0 0 2018-01-29 12:43:33
28 ICU ICU 8 0 0 0 2018-01-29 12:45:46
* Informasi dapat berubah pada saat peserta sampai di Rumah Sakit.
* Kolom tersedia adalah jumlah bed tersedia secara umum, baik laki-laki, perempuan, infeksi, non infeksi, dll.
* Kolom tersedia (laki-laki) adalah jumlah bed tersedia khusus untuk pasien laki-laki.
* Kolom tersedia (perempuan) adalah jumlah bed tersedia khusus untuk pasien perempuan.

Sarana

No Nama Sarana Nama Fasilitas Jumlah Total Jumlah Baik Jumlah Rusak Tgl Update
1 BRONCHOSCOPY BRONCHOSCOPY 1 1 0 2017-06-12 01:59:42
2 ENDOSCOPY ENDOSCOPY 1 1 0 2017-06-12 01:59:47
3 HEMODIALISA MESIN HEMODIALISA 11 11 0 2017-06-12 01:59:51
4 RADIOLOGI CT SCAN 1 1 0 2017-06-12 01:59:54
5 RADIOLOGI PANORAMIC 1 1 0 2017-06-12 01:59:57
6 RADIOLOGI USG 4 4 0 2017-06-12 02:00:01

Jadwal Poli

No Nama Poli Jadwal Poli Jam Pelayanan Dokter Tgl Update